createdAt,value
2023-02-11T00:00:40.808Z,58.49
2023-02-11T00:03:07.669Z,58.66
2023-02-11T00:05:34.671Z,58.29
2023-02-11T00:08:01.592Z,59.03
2023-02-11T00:10:28.203Z,59.03
2023-02-11T00:12:54.736Z,58.24
2023-02-11T00:15:21.509Z,59.15
2023-02-11T00:17:48.094Z,57.75
2023-02-11T00:20:15.112Z,58.47
2023-02-11T00:22:41.697Z,58.34
2023-02-11T00:25:08.471Z,60.45
2023-02-11T00:27:37.148Z,58.98
2023-02-11T00:30:05.362Z,59.02
2023-02-11T00:32:32.002Z,59.93
2023-02-11T00:34:58.570Z,60.66
2023-02-11T00:37:25.168Z,59.58
2023-02-11T00:39:51.822Z,60.58
2023-02-11T00:42:18.441Z,59.04
2023-02-11T00:44:45.077Z,59.10
2023-02-11T00:47:11.640Z,58.47
2023-02-11T00:49:40.299Z,59.60
2023-02-11T00:52:07.270Z,58.89
2023-02-11T00:54:34.673Z,58.68
2023-02-11T00:57:01.251Z,59.17
2023-02-11T00:59:27.997Z,58.49
2023-02-11T01:01:54.723Z,58.88
2023-02-11T01:04:21.463Z,58.47
2023-02-11T01:06:51.403Z,59.19
2023-02-11T01:09:18.141Z,59.00
2023-02-11T01:11:44.720Z,59.85
2023-02-11T01:14:11.553Z,63.16
2023-02-11T01:16:38.325Z,62.20
2023-02-11T01:19:05.240Z,61.71
2023-02-11T01:21:31.917Z,61.51
2023-02-11T01:23:58.491Z,60.99
2023-02-11T01:26:25.054Z,62.01
2023-02-11T01:28:51.607Z,62.09
2023-02-11T01:31:18.270Z,61.79
2023-02-11T01:33:44.883Z,60.73
2023-02-11T01:36:12.003Z,61.22
2023-02-11T01:38:40.828Z,60.53
2023-02-11T01:41:09.811Z,59.29
2023-02-11T01:43:42.260Z,59.20
2023-02-11T01:46:14.622Z,59.97
2023-02-11T01:48:47.642Z,58.35
2023-02-11T01:51:21.771Z,58.56
2023-02-11T01:54:07.376Z,57.89
2023-02-11T01:57:06.534Z,58.01
2023-02-11T01:59:39.906Z,58.18
2023-02-11T02:02:11.595Z,58.51
2023-02-11T02:04:57.873Z,58.39
2023-02-11T02:07:40.874Z,58.65
2023-02-11T02:10:12.105Z,57.75
2023-02-11T02:12:38.793Z,57.75
2023-02-11T02:15:24.515Z,58.13
2023-02-11T02:17:57.487Z,57.82
2023-02-11T02:21:04.840Z,57.37
2023-02-11T02:24:28.858Z,57.19
2023-02-11T02:27:25.729Z,57.11
2023-02-11T02:30:00.928Z,57.70
2023-02-11T02:32:45.763Z,57.90
2023-02-11T02:35:25.750Z,58.52
2023-02-11T02:38:08.594Z,57.32
2023-02-11T02:40:41.850Z,57.32
2023-02-11T02:43:10.030Z,57.94
2023-02-11T02:45:36.629Z,61.32
2023-02-11T02:48:03.274Z,59.97
2023-02-11T02:50:33.989Z,62.22
2023-02-11T02:53:24.196Z,59.62
2023-02-11T02:56:18.733Z,62.50
2023-02-11T02:59:04.428Z,59.89
2023-02-11T03:01:59.162Z,60.64
2023-02-11T03:05:04.761Z,59.05
2023-02-11T03:07:35.338Z,60.00
2023-02-11T03:10:12.474Z,61.13
2023-02-11T03:12:40.222Z,59.76
2023-02-11T03:15:07.354Z,59.92
2023-02-11T03:17:35.207Z,61.56
2023-02-11T03:20:04.276Z,61.74
2023-02-11T03:22:35.411Z,63.07
2023-02-11T03:25:02.786Z,61.20
2023-02-11T03:27:47.127Z,60.37
2023-02-11T03:30:18.170Z,59.66
2023-02-11T03:32:53.970Z,59.68
2023-02-11T03:35:29.259Z,60.64
2023-02-11T03:37:58.489Z,59.79
2023-02-11T03:40:27.432Z,59.47
2023-02-11T03:43:03.019Z,59.60
2023-02-11T03:45:30.313Z,60.18
2023-02-11T03:48:19.990Z,61.96
2023-02-11T03:50:47.510Z,61.68
2023-02-11T03:53:15.126Z,60.13
2023-02-11T03:55:43.144Z,60.56
2023-02-11T03:58:09.813Z,59.01
2023-02-11T04:00:39.557Z,60.69
2023-02-11T04:03:07.026Z,59.34
2023-02-11T04:05:33.840Z,58.75
2023-02-11T04:08:00.560Z,58.75
2023-02-11T04:10:27.147Z,57.49
2023-02-11T04:12:53.802Z,57.11
2023-02-11T04:15:22.960Z,56.70
2023-02-11T04:17:49.599Z,57.56
2023-02-11T04:20:16.167Z,58.49
2023-02-11T04:22:42.697Z,58.75
2023-02-11T04:25:09.564Z,59.12
2023-02-11T04:27:36.541Z,60.21
2023-02-11T04:30:04.018Z,60.84
2023-02-11T04:32:30.558Z,60.01
2023-02-11T04:34:57.209Z,58.55
2023-02-11T04:37:23.767Z,60.74
2023-02-11T04:39:50.294Z,59.97
2023-02-11T04:42:16.870Z,61.62
2023-02-11T04:44:43.460Z,62.02
2023-02-11T04:47:10.289Z,59.48
2023-02-11T04:49:36.905Z,59.52
2023-02-11T04:52:03.452Z,62.10
2023-02-11T04:54:30.111Z,61.60
2023-02-11T04:56:56.669Z,61.32
2023-02-11T04:59:23.806Z,61.46
2023-02-11T05:01:50.508Z,60.59
2023-02-11T05:04:17.370Z,60.67
2023-02-11T05:06:43.995Z,60.60
2023-02-11T05:09:12.526Z,61.16
2023-02-11T05:11:39.502Z,62.87
2023-02-11T05:14:06.730Z,63.59
2023-02-11T05:16:33.404Z,63.33
2023-02-11T05:18:59.975Z,64.00
2023-02-11T05:21:26.578Z,60.79
2023-02-11T05:23:53.093Z,63.21
2023-02-11T05:26:20.237Z,61.75
2023-02-11T05:28:46.821Z,61.05
2023-02-11T05:31:14.873Z,60.70
2023-02-11T05:33:41.668Z,61.18
2023-02-11T05:36:10.363Z,62.65
2023-02-11T05:38:37.598Z,60.34
2023-02-11T05:41:05.256Z,61.33
2023-02-11T05:43:32.221Z,58.84
2023-02-11T05:45:58.807Z,59.26
2023-02-11T05:48:25.436Z,60.35
2023-02-11T05:50:52.162Z,61.05
2023-02-11T05:53:18.724Z,61.46
2023-02-11T05:55:45.335Z,60.34
2023-02-11T05:58:11.932Z,60.63
2023-02-11T06:00:38.598Z,59.47
2023-02-11T06:03:05.303Z,62.35
2023-02-11T06:05:32.241Z,59.04
2023-02-11T06:07:58.956Z,59.64
2023-02-11T06:10:25.783Z,58.00
2023-02-11T06:12:52.396Z,57.51
2023-02-11T06:15:19.005Z,57.69
2023-02-11T06:17:45.524Z,59.80
2023-02-11T06:20:12.127Z,58.66
2023-02-11T06:22:38.683Z,58.16
2023-02-11T06:25:05.553Z,59.14
2023-02-11T06:27:32.214Z,58.30
2023-02-11T06:29:58.866Z,58.61
2023-02-11T06:32:43.427Z,60.28
2023-02-11T06:35:12.521Z,60.30
2023-02-11T06:37:39.812Z,60.70
2023-02-11T06:40:06.941Z,60.91
2023-02-11T06:42:34.568Z,60.61
2023-02-11T06:45:01.256Z,62.40
2023-02-11T06:47:27.801Z,61.78
2023-02-11T06:49:54.569Z,62.01
2023-02-11T06:52:21.116Z,61.50
2023-02-11T06:54:47.706Z,61.19
2023-02-11T06:57:14.304Z,61.15
2023-02-11T06:59:41.169Z,61.38
2023-02-11T07:02:10.376Z,61.07
2023-02-11T07:04:37.016Z,59.93
2023-02-11T07:07:03.714Z,61.43
2023-02-11T07:09:30.411Z,62.29
2023-02-11T07:11:56.957Z,61.13
2023-02-11T07:14:23.872Z,61.18
2023-02-11T07:16:50.384Z,61.30
2023-02-11T07:19:17.188Z,60.25
2023-02-11T07:21:43.701Z,62.16
2023-02-11T07:24:11.260Z,61.71
2023-02-11T07:26:38.183Z,61.63
2023-02-11T07:29:04.925Z,60.22
2023-02-11T07:31:32.086Z,59.14
2023-02-11T07:34:00.461Z,58.23
2023-02-11T07:36:28.416Z,60.80
2023-02-11T07:38:55.077Z,60.49
2023-02-11T07:41:23.558Z,62.05
2023-02-11T07:43:50.246Z,62.08
2023-02-11T07:46:23.062Z,61.93
2023-02-11T07:48:49.765Z,62.26
2023-02-11T07:51:18.828Z,61.29
2023-02-11T07:53:46.000Z,61.61
2023-02-11T07:56:13.920Z,61.56
2023-02-11T07:58:42.176Z,60.69
2023-02-11T08:01:18.618Z,60.13
2023-02-11T08:03:52.711Z,59.43
2023-02-11T08:06:21.423Z,60.71
2023-02-11T08:08:48.958Z,60.90
2023-02-11T08:11:21.323Z,60.82
2023-02-11T08:13:48.252Z,59.92
2023-02-11T08:16:35.288Z,59.45
2023-02-11T08:19:04.577Z,59.76
2023-02-11T08:21:31.097Z,58.44
2023-02-11T08:23:57.711Z,57.06
2023-02-11T08:26:27.734Z,57.58
2023-02-11T08:28:56.027Z,57.12
2023-02-11T08:31:28.624Z,55.75
2023-02-11T08:33:58.173Z,57.76
2023-02-11T08:36:28.509Z,58.40
2023-02-11T08:39:08.630Z,57.84
2023-02-11T08:41:42.979Z,59.59
2023-02-11T08:44:09.686Z,59.58
2023-02-11T08:46:36.270Z,58.90
2023-02-11T08:49:02.963Z,59.31
2023-02-11T08:51:33.045Z,60.23
2023-02-11T08:54:00.105Z,59.56
2023-02-11T08:56:26.826Z,59.34
2023-02-11T08:58:53.583Z,58.14
2023-02-11T09:01:23.257Z,56.92
2023-02-11T09:03:50.165Z,57.13
2023-02-11T09:06:18.634Z,56.28
2023-02-11T09:08:49.345Z,55.48
2023-02-11T09:11:16.952Z,54.11
2023-02-11T09:13:44.029Z,54.49
2023-02-11T09:16:19.306Z,57.22
2023-02-11T09:18:46.338Z,58.30
2023-02-11T09:21:14.733Z,57.59
2023-02-11T09:23:44.913Z,58.60
2023-02-11T09:26:20.439Z,58.08
2023-02-11T09:28:47.506Z,57.66
2023-02-11T09:31:16.935Z,58.25
2023-02-11T09:33:48.425Z,58.37
2023-02-11T09:36:20.504Z,57.56
2023-02-11T09:38:48.951Z,57.35
2023-02-11T09:41:24.681Z,56.66
2023-02-11T09:43:56.894Z,53.75
2023-02-11T09:46:25.267Z,55.07
2023-02-11T09:48:53.829Z,55.90
2023-02-11T09:51:41.036Z,56.17
2023-02-11T09:54:26.018Z,53.52
2023-02-11T09:56:52.586Z,52.11
2023-02-11T09:59:20.202Z,52.70
2023-02-11T10:01:50.983Z,53.69
2023-02-11T10:04:55.548Z,52.65
2023-02-11T10:07:48.599Z,51.33
2023-02-11T10:10:31.882Z,52.55
2023-02-11T10:12:58.319Z,51.32
2023-02-11T10:15:33.434Z,51.73
2023-02-11T10:18:02.786Z,50.74
2023-02-11T10:20:48.869Z,50.92
2023-02-11T10:23:29.729Z,50.35
2023-02-11T10:25:57.649Z,50.73
2023-02-11T10:28:30.999Z,49.81
2023-02-11T10:31:00.774Z,50.64
2023-02-11T10:33:59.518Z,51.50
2023-02-11T10:36:31.546Z,49.72
2023-02-11T10:39:00.216Z,50.49
2023-02-11T10:41:32.566Z,50.75
2023-02-11T10:44:00.784Z,51.40
2023-02-11T10:46:32.216Z,48.57
2023-02-11T10:48:58.983Z,50.70
2023-02-11T10:51:37.987Z,51.08
2023-02-11T10:54:04.470Z,51.56
2023-02-11T10:56:38.489Z,52.17
2023-02-11T10:59:07.733Z,51.70
2023-02-11T11:01:40.192Z,51.03
2023-02-11T11:04:06.891Z,52.38
2023-02-11T11:06:34.634Z,51.49
2023-02-11T11:09:02.051Z,51.97
2023-02-11T11:11:28.753Z,51.94
2023-02-11T11:13:59.081Z,50.25
2023-02-11T11:16:32.203Z,46.53
2023-02-11T11:19:07.957Z,48.77
2023-02-11T11:21:44.980Z,50.60
2023-02-11T11:24:29.436Z,50.09
2023-02-11T11:27:01.880Z,49.45
2023-02-11T11:29:40.166Z,50.96
2023-02-11T11:32:13.359Z,49.11
2023-02-11T11:34:45.100Z,48.84
2023-02-11T11:37:29.316Z,49.57
2023-02-11T11:40:01.180Z,48.83
2023-02-11T11:42:33.805Z,49.99
2023-02-11T11:45:23.152Z,49.65
2023-02-11T11:47:56.438Z,51.07
2023-02-11T11:50:42.961Z,50.89
2023-02-11T11:53:15.683Z,50.99
2023-02-11T11:55:49.137Z,50.38
2023-02-11T11:58:18.424Z,50.59
2023-02-11T12:01:00.144Z,51.04
2023-02-11T12:03:45.257Z,50.10
2023-02-11T12:06:24.916Z,52.58
2023-02-11T12:09:12.286Z,51.75
2023-02-11T12:12:20.962Z,50.45
2023-02-11T12:15:11.969Z,49.02
2023-02-11T12:18:15.443Z,49.60
2023-02-11T12:21:07.235Z,48.98
2023-02-11T12:23:55.641Z,50.21
2023-02-11T12:26:37.597Z,48.58
2023-02-11T12:29:27.119Z,49.80
2023-02-11T12:32:12.568Z,50.14
2023-02-11T12:34:49.340Z,49.26
2023-02-11T12:37:23.865Z,49.40
2023-02-11T12:39:56.345Z,49.75
2023-02-11T12:42:51.602Z,50.27
2023-02-11T12:45:38.313Z,51.25
2023-02-11T12:48:27.022Z,52.02
2023-02-11T12:50:56.823Z,51.62
2023-02-11T12:53:44.649Z,53.41
2023-02-11T12:56:25.082Z,52.70
2023-02-11T12:58:53.124Z,52.08
2023-02-11T13:01:26.719Z,53.04
2023-02-11T13:03:57.406Z,52.92
2023-02-11T13:06:35.810Z,52.63
2023-02-11T13:09:04.844Z,52.30
2023-02-11T13:11:44.612Z,51.97
2023-02-11T13:14:21.893Z,53.05
2023-02-11T13:16:50.093Z,54.46
2023-02-11T13:19:35.957Z,54.43
2023-02-11T13:22:04.838Z,54.06
2023-02-11T13:24:49.304Z,54.05
2023-02-11T13:27:29.838Z,55.24
2023-02-11T13:30:22.065Z,55.74
2023-02-11T13:32:55.531Z,54.09
2023-02-11T13:35:33.926Z,54.91
2023-02-11T13:38:02.430Z,53.73
2023-02-11T13:40:33.612Z,54.66
2023-02-11T13:43:01.743Z,53.06
2023-02-11T13:45:43.541Z,53.36
2023-02-11T13:48:25.239Z,54.04
2023-02-11T13:50:58.280Z,54.51
2023-02-11T13:53:25.048Z,54.26
2023-02-11T13:55:53.908Z,54.84
2023-02-11T13:58:29.548Z,54.48
2023-02-11T14:00:56.168Z,53.14
2023-02-11T14:03:43.569Z,54.31
2023-02-11T14:06:28.969Z,54.91
2023-02-11T14:09:08.864Z,54.80
2023-02-11T14:11:41.745Z,54.49
2023-02-11T14:14:08.214Z,55.15
2023-02-11T14:16:38.382Z,55.08
2023-02-11T14:19:06.394Z,55.17
2023-02-11T14:21:38.757Z,55.12
2023-02-11T14:24:05.451Z,55.42
2023-02-11T14:26:47.579Z,54.59
2023-02-11T14:29:28.241Z,55.08
2023-02-11T14:32:06.032Z,53.20
2023-02-11T14:34:47.949Z,53.85
2023-02-11T14:37:33.257Z,54.33
2023-02-11T14:40:29.737Z,54.63
2023-02-11T14:42:57.861Z,53.71
2023-02-11T14:45:27.469Z,53.47
2023-02-11T14:48:08.403Z,52.83
2023-02-11T14:51:11.394Z,52.04
2023-02-11T14:53:42.654Z,52.17
2023-02-11T14:56:26.300Z,51.92
2023-02-11T14:58:54.925Z,52.55
2023-02-11T15:01:26.961Z,52.59
2023-02-11T15:03:56.445Z,51.97
2023-02-11T15:06:31.955Z,51.72
2023-02-11T15:09:01.420Z,52.96
2023-02-11T15:11:31.628Z,52.74
2023-02-11T15:14:02.015Z,52.13
2023-02-11T15:16:29.572Z,53.18
2023-02-11T15:18:59.258Z,52.70
2023-02-11T15:21:28.683Z,52.63
2023-02-11T15:24:19.909Z,53.86
2023-02-11T15:26:56.358Z,52.96
2023-02-11T15:29:27.880Z,54.61
2023-02-11T15:32:13.658Z,54.14
2023-02-11T15:34:40.732Z,54.63
2023-02-11T15:37:07.446Z,55.33
2023-02-11T15:39:40.449Z,55.28
2023-02-11T15:42:22.136Z,55.50
2023-02-11T15:44:56.275Z,54.99
2023-02-11T15:47:29.657Z,54.03
2023-02-11T15:49:56.294Z,55.06
2023-02-11T15:52:25.540Z,54.91
2023-02-11T15:54:52.758Z,55.82
2023-02-11T15:57:20.172Z,55.86
2023-02-11T15:59:49.114Z,56.34
2023-02-11T16:02:26.998Z,55.50
2023-02-11T16:04:55.651Z,56.55
2023-02-11T16:07:47.492Z,56.77
2023-02-11T16:10:30.415Z,57.06
2023-02-11T16:13:18.219Z,56.32
2023-02-11T16:15:57.807Z,55.63
2023-02-11T16:18:36.719Z,56.46
2023-02-11T16:21:05.637Z,57.55
2023-02-11T16:23:35.388Z,56.62
2023-02-11T16:26:12.219Z,55.24
2023-02-11T16:28:39.580Z,55.47
2023-02-11T16:31:06.591Z,56.54
2023-02-11T16:33:33.520Z,57.09
2023-02-11T16:36:02.185Z,56.23
2023-02-11T16:38:29.471Z,56.97
2023-02-11T16:40:56.314Z,57.70
2023-02-11T16:43:22.837Z,57.48
2023-02-11T16:45:49.769Z,57.04
2023-02-11T16:48:19.205Z,57.03
2023-02-11T16:50:48.940Z,56.20
2023-02-11T16:53:22.486Z,57.60
2023-02-11T16:55:50.002Z,57.27
2023-02-11T16:58:16.736Z,57.98
2023-02-11T17:00:44.844Z,57.19
2023-02-11T17:03:17.427Z,57.22
2023-02-11T17:05:55.073Z,57.83
2023-02-11T17:08:24.730Z,57.81
2023-02-11T17:10:51.576Z,56.74
2023-02-11T17:13:18.323Z,56.90
2023-02-11T17:15:44.962Z,57.16
2023-02-11T17:18:14.736Z,57.56
2023-02-11T17:20:41.578Z,58.44
2023-02-11T17:23:08.267Z,58.01
2023-02-11T17:25:37.218Z,57.09
2023-02-11T17:28:08.050Z,56.47
2023-02-11T17:30:35.389Z,56.06
2023-02-11T17:33:01.930Z,55.74
2023-02-11T17:35:28.471Z,55.33
2023-02-11T17:37:55.092Z,55.91
2023-02-11T17:40:21.773Z,55.15
2023-02-11T17:42:48.883Z,55.19
2023-02-11T17:45:15.414Z,55.47
2023-02-11T17:47:42.027Z,55.19
2023-02-11T17:50:08.972Z,55.52
2023-02-11T17:52:36.670Z,55.47
2023-02-11T17:55:03.897Z,55.00
2023-02-11T17:57:30.477Z,55.36
2023-02-11T17:59:57.273Z,55.94
2023-02-11T18:02:23.838Z,55.76
2023-02-11T18:04:52.185Z,56.02
2023-02-11T18:07:19.940Z,56.47
2023-02-11T18:09:46.551Z,55.66
2023-02-11T18:12:13.162Z,56.23
2023-02-11T18:14:40.693Z,56.26
2023-02-11T18:17:07.592Z,56.28
2023-02-11T18:19:36.478Z,55.88
2023-02-11T18:22:04.339Z,55.92
2023-02-11T18:24:31.092Z,55.83
2023-02-11T18:26:58.139Z,55.82
2023-02-11T18:29:25.008Z,56.71
2023-02-11T18:31:55.177Z,56.71
2023-02-11T18:34:21.805Z,56.18
2023-02-11T18:36:49.000Z,56.24
2023-02-11T18:39:16.520Z,56.09
2023-02-11T18:41:43.581Z,57.48
2023-02-11T18:44:12.002Z,57.29
2023-02-11T18:46:38.665Z,57.35
2023-02-11T18:49:05.223Z,57.09
2023-02-11T18:51:32.373Z,59.32
2023-02-11T18:53:59.866Z,59.21
2023-02-11T18:56:28.028Z,57.34
2023-02-11T18:58:56.185Z,58.35
2023-02-11T19:01:27.458Z,59.72
2023-02-11T19:03:55.548Z,61.00
2023-02-11T19:06:26.961Z,60.29
2023-02-11T19:08:56.344Z,59.32
2023-02-11T19:11:42.927Z,58.20
2023-02-11T19:14:10.413Z,57.76
2023-02-11T19:16:38.010Z,57.19
2023-02-11T19:19:05.177Z,57.61
2023-02-11T19:21:32.698Z,56.56
2023-02-11T19:24:00.163Z,57.46
2023-02-11T19:26:27.380Z,56.84
2023-02-11T19:28:54.129Z,56.58
2023-02-11T19:31:21.103Z,57.15
2023-02-11T19:33:47.776Z,56.53
2023-02-11T19:36:17.169Z,57.06
2023-02-11T19:38:44.638Z,56.84
2023-02-11T19:41:11.852Z,57.27
2023-02-11T19:43:41.912Z,58.20
2023-02-11T19:46:08.936Z,58.20
2023-02-11T19:48:35.545Z,57.91
2023-02-11T19:51:12.060Z,60.30
2023-02-11T19:53:39.592Z,62.04
2023-02-11T19:56:07.714Z,60.75
2023-02-11T19:58:38.082Z,60.35
2023-02-11T20:01:13.168Z,59.93
2023-02-11T20:03:42.514Z,59.67
2023-02-11T20:06:13.556Z,59.42
2023-02-11T20:08:40.836Z,59.40
2023-02-11T20:11:15.785Z,59.73
2023-02-11T20:13:42.705Z,59.50
2023-02-11T20:16:14.221Z,59.66
2023-02-11T20:18:41.034Z,59.70
2023-02-11T20:21:17.053Z,60.08
2023-02-11T20:23:46.437Z,59.94
2023-02-11T20:26:18.384Z,59.66
2023-02-11T20:28:47.291Z,59.57
2023-02-11T20:31:15.137Z,59.43
2023-02-11T20:33:42.196Z,59.33
2023-02-11T20:36:11.383Z,59.23
2023-02-11T20:38:38.228Z,59.75
2023-02-11T20:41:18.517Z,59.45
2023-02-11T20:43:47.111Z,59.71
2023-02-11T20:46:15.719Z,59.89
2023-02-11T20:48:42.716Z,59.86
2023-02-11T20:51:14.670Z,59.46
2023-02-11T20:53:48.782Z,59.97
2023-02-11T20:56:16.233Z,59.52
2023-02-11T20:58:42.836Z,60.11
2023-02-11T21:01:13.890Z,59.40
2023-02-11T21:03:43.763Z,59.87
2023-02-11T21:06:13.469Z,60.11
2023-02-11T21:08:40.018Z,59.79
2023-02-11T21:15:30.482Z,59.90
2023-02-11T21:17:57.059Z,59.95
2023-02-11T21:20:23.576Z,60.14
2023-02-11T21:22:50.202Z,60.14
2023-02-11T21:25:16.729Z,59.86
2023-02-11T21:27:43.328Z,59.67
2023-02-11T21:30:11.344Z,59.90
2023-02-11T21:32:37.915Z,60.20
2023-02-11T21:35:04.583Z,59.96
2023-02-11T21:37:31.190Z,60.42
2023-02-11T21:39:57.875Z,59.98
2023-02-11T21:42:24.560Z,60.14
2023-02-11T21:44:51.264Z,60.22
2023-02-11T21:47:17.831Z,60.36
2023-02-11T21:49:44.576Z,59.95
2023-02-11T21:52:11.161Z,60.19
2023-02-11T21:54:37.715Z,60.60
2023-02-11T21:57:04.295Z,60.25
2023-02-11T21:59:32.420Z,60.32
2023-02-11T22:01:58.973Z,61.09
2023-02-11T22:04:26.365Z,60.68
2023-02-11T22:06:53.097Z,60.52
2023-02-11T22:09:19.628Z,60.46
2023-02-11T22:11:46.338Z,59.97
2023-02-11T22:14:12.932Z,60.04
2023-02-11T22:16:39.902Z,60.76
2023-02-11T22:19:07.407Z,60.70
2023-02-11T22:21:34.024Z,60.33
2023-02-11T22:24:00.631Z,60.43
2023-02-11T22:26:27.843Z,60.38
2023-02-11T22:28:55.044Z,60.10
2023-02-11T22:31:28.801Z,59.93
2023-02-11T22:33:56.078Z,60.38
2023-02-11T22:36:31.072Z,60.28
2023-02-11T22:39:01.404Z,60.70
2023-02-11T22:41:27.994Z,60.68
2023-02-11T22:43:54.508Z,60.59
2023-02-11T22:46:21.294Z,61.84
2023-02-11T22:48:48.555Z,63.84
2023-02-11T22:51:17.977Z,62.79
2023-02-11T22:53:44.603Z,62.17
2023-02-11T22:56:15.361Z,61.06
2023-02-11T22:58:42.668Z,62.60
2023-02-11T23:01:09.246Z,62.39
2023-02-11T23:03:36.168Z,62.09
2023-02-11T23:06:03.080Z,61.24
2023-02-11T23:08:30.881Z,61.52
2023-02-11T23:11:05.649Z,62.92
2023-02-11T23:13:34.282Z,63.99
2023-02-11T23:16:03.456Z,64.44
2023-02-11T23:18:30.064Z,64.35
2023-02-11T23:20:56.576Z,64.18
2023-02-11T23:23:23.093Z,64.36
2023-02-11T23:25:49.866Z,64.93
2023-02-11T23:28:16.444Z,63.85
2023-02-11T23:30:43.069Z,62.29
2023-02-11T23:33:09.542Z,61.85
2023-02-11T23:35:36.367Z,61.49
2023-02-11T23:38:02.861Z,61.49
2023-02-11T23:40:29.390Z,61.36
2023-02-11T23:42:55.901Z,61.17
2023-02-11T23:45:22.715Z,61.09
2023-02-11T23:47:49.881Z,61.36
2023-02-11T23:50:16.613Z,62.60
2023-02-11T23:52:51.758Z,63.02
2023-02-11T23:55:18.229Z,62.32
2023-02-11T23:57:44.798Z,61.50
